sensor_id;sensor_type;location;lat;lon;timestamp;P1;durP1;ratioP1;P2;durP2;ratioP2
66380;SDS011;53177;52.648;1.214;2022-10-18T00:00:39;9.83;;;2.37;;
66380;SDS011;53177;52.648;1.214;2022-10-18T00:03:04;9.93;;;2.33;;
66380;SDS011;53177;52.648;1.214;2022-10-18T00:05:30;9.45;;;2.63;;
66380;SDS011;53177;52.648;1.214;2022-10-18T00:07:56;8.47;;;2.00;;
66380;SDS011;53177;52.648;1.214;2022-10-18T00:10:22;10.27;;;2.47;;
66380;SDS011;53177;52.648;1.214;2022-10-18T00:12:49;7.65;;;2.10;;
66380;SDS011;53177;52.648;1.214;2022-10-18T00:15:15;8.07;;;2.30;;
66380;SDS011;53177;52.648;1.214;2022-10-18T00:17:41;9.77;;;2.10;;
66380;SDS011;53177;52.648;1.214;2022-10-18T00:20:06;10.95;;;2.45;;
66380;SDS011;53177;52.648;1.214;2022-10-18T00:22:33;7.40;;;2.20;;
66380;SDS011;53177;52.648;1.214;2022-10-18T00:25:02;12.60;;;2.38;;
66380;SDS011;53177;52.648;1.214;2022-10-18T00:27:29;8.93;;;2.30;;
66380;SDS011;53177;52.648;1.214;2022-10-18T00:29:54;8.63;;;2.47;;
66380;SDS011;53177;52.648;1.214;2022-10-18T00:32:20;9.68;;;2.17;;
66380;SDS011;53177;52.648;1.214;2022-10-18T00:34:46;6.30;;;1.90;;
66380;SDS011;53177;52.648;1.214;2022-10-18T00:37:11;9.77;;;2.60;;
66380;SDS011;53177;52.648;1.214;2022-10-18T00:39:37;11.35;;;2.83;;
66380;SDS011;53177;52.648;1.214;2022-10-18T00:42:02;9.40;;;2.90;;
66380;SDS011;53177;52.648;1.214;2022-10-18T00:46:54;8.47;;;2.83;;
66380;SDS011;53177;52.648;1.214;2022-10-18T00:49:32;9.73;;;2.35;;
66380;SDS011;53177;52.648;1.214;2022-10-18T00:52:03;9.45;;;2.75;;
66380;SDS011;53177;52.648;1.214;2022-10-18T00:54:29;8.73;;;2.33;;
66380;SDS011;53177;52.648;1.214;2022-10-18T00:56:57;7.82;;;2.75;;
66380;SDS011;53177;52.648;1.214;2022-10-18T00:59:23;9.10;;;2.50;;
66380;SDS011;53177;52.648;1.214;2022-10-18T01:01:50;8.75;;;2.17;;
66380;SDS011;53177;52.648;1.214;2022-10-18T01:04:16;7.53;;;2.40;;
66380;SDS011;53177;52.648;1.214;2022-10-18T01:06:51;10.02;;;2.92;;
66380;SDS011;53177;52.648;1.214;2022-10-18T01:09:27;10.77;;;2.58;;
66380;SDS011;53177;52.648;1.214;2022-10-18T01:12:22;9.52;;;2.17;;
66380;SDS011;53177;52.648;1.214;2022-10-18T01:31:15;9.40;;;2.80;;
66380;SDS011;53177;52.648;1.214;2022-10-18T01:33:46;6.90;;;2.13;;
66380;SDS011;53177;52.648;1.214;2022-10-18T01:36:20;8.48;;;2.50;;
66380;SDS011;53177;52.648;1.214;2022-10-18T01:38:53;10.20;;;2.55;;
66380;SDS011;53177;52.648;1.214;2022-10-18T01:41:22;6.73;;;2.17;;
66380;SDS011;53177;52.648;1.214;2022-10-18T01:43:51;11.75;;;2.30;;
66380;SDS011;53177;52.648;1.214;2022-10-18T01:46:21;7.22;;;2.05;;
66380;SDS011;53177;52.648;1.214;2022-10-18T01:48:50;8.75;;;2.22;;
66380;SDS011;53177;52.648;1.214;2022-10-18T01:51:34;6.45;;;2.10;;
66380;SDS011;53177;52.648;1.214;2022-10-18T01:54:00;7.97;;;2.03;;
66380;SDS011;53177;52.648;1.214;2022-10-18T01:56:46;9.45;;;2.30;;
66380;SDS011;53177;52.648;1.214;2022-10-18T02:07:01;11.25;;;2.40;;
66380;SDS011;53177;52.648;1.214;2022-10-18T02:09:35;9.55;;;2.55;;
66380;SDS011;53177;52.648;1.214;2022-10-18T02:12:07;9.27;;;2.70;;
66380;SDS011;53177;52.648;1.214;2022-10-18T02:14:36;7.75;;;2.65;;
66380;SDS011;53177;52.648;1.214;2022-10-18T02:17:04;11.15;;;2.60;;
66380;SDS011;53177;52.648;1.214;2022-10-18T02:19:39;9.50;;;2.55;;
66380;SDS011;53177;52.648;1.214;2022-10-18T02:22:08;7.93;;;2.45;;
66380;SDS011;53177;52.648;1.214;2022-10-18T02:24:38;11.60;;;2.50;;
66380;SDS011;53177;52.648;1.214;2022-10-18T02:27:07;11.15;;;2.72;;
66380;SDS011;53177;52.648;1.214;2022-10-18T02:29:33;7.05;;;2.45;;
66380;SDS011;53177;52.648;1.214;2022-10-18T02:32:07;10.40;;;2.70;;
66380;SDS011;53177;52.648;1.214;2022-10-18T02:34:43;10.10;;;2.38;;
66380;SDS011;53177;52.648;1.214;2022-10-18T02:37:12;9.13;;;2.33;;
66380;SDS011;53177;52.648;1.214;2022-10-18T02:39:41;7.95;;;2.20;;
66380;SDS011;53177;52.648;1.214;2022-10-18T02:42:10;7.47;;;2.20;;
66380;SDS011;53177;52.648;1.214;2022-10-18T02:44:36;9.13;;;2.55;;
66380;SDS011;53177;52.648;1.214;2022-10-18T02:47:03;8.25;;;2.38;;
66380;SDS011;53177;52.648;1.214;2022-10-18T02:49:30;9.93;;;2.95;;
66380;SDS011;53177;52.648;1.214;2022-10-18T02:51:56;11.17;;;2.70;;
66380;SDS011;53177;52.648;1.214;2022-10-18T02:54:21;8.13;;;3.03;;
66380;SDS011;53177;52.648;1.214;2022-10-18T02:56:48;10.98;;;3.00;;
66380;SDS011;53177;52.648;1.214;2022-10-18T02:59:13;8.98;;;2.17;;
66380;SDS011;53177;52.648;1.214;2022-10-18T03:01:39;9.63;;;2.80;;
66380;SDS011;53177;52.648;1.214;2022-10-18T03:04:04;9.80;;;2.65;;
66380;SDS011;53177;52.648;1.214;2022-10-18T03:06:30;10.43;;;2.90;;
66380;SDS011;53177;52.648;1.214;2022-10-18T03:08:56;9.60;;;2.60;;
66380;SDS011;53177;52.648;1.214;2022-10-18T03:11:22;7.77;;;2.60;;
66380;SDS011;53177;52.648;1.214;2022-10-18T03:13:48;8.05;;;2.70;;
66380;SDS011;53177;52.648;1.214;2022-10-18T03:16:16;11.38;;;2.95;;
66380;SDS011;53177;52.648;1.214;2022-10-18T03:18:42;11.40;;;2.88;;
66380;SDS011;53177;52.648;1.214;2022-10-18T03:21:08;10.33;;;2.50;;
66380;SDS011;53177;52.648;1.214;2022-10-18T03:23:34;8.65;;;2.63;;
66380;SDS011;53177;52.648;1.214;2022-10-18T03:25:59;10.27;;;2.75;;
66380;SDS011;53177;52.648;1.214;2022-10-18T03:28:25;8.93;;;2.70;;
66380;SDS011;53177;52.648;1.214;2022-10-18T03:30:50;8.17;;;2.57;;
66380;SDS011;53177;52.648;1.214;2022-10-18T03:33:16;9.77;;;2.70;;
66380;SDS011;53177;52.648;1.214;2022-10-18T03:35:41;9.25;;;2.90;;
66380;SDS011;53177;52.648;1.214;2022-10-18T03:38:07;8.20;;;2.70;;
66380;SDS011;53177;52.648;1.214;2022-10-18T03:40:32;8.53;;;3.00;;
66380;SDS011;53177;52.648;1.214;2022-10-18T03:42:58;10.95;;;2.50;;
66380;SDS011;53177;52.648;1.214;2022-10-18T03:45:23;6.93;;;2.37;;
66380;SDS011;53177;52.648;1.214;2022-10-18T03:47:49;8.97;;;2.93;;
66380;SDS011;53177;52.648;1.214;2022-10-18T03:50:15;11.83;;;3.17;;
66380;SDS011;53177;52.648;1.214;2022-10-18T03:52:41;9.88;;;3.00;;
66380;SDS011;53177;52.648;1.214;2022-10-18T03:55:15;11.82;;;2.92;;
66380;SDS011;53177;52.648;1.214;2022-10-18T03:57:43;6.78;;;2.47;;
66380;SDS011;53177;52.648;1.214;2022-10-18T04:00:09;9.77;;;3.00;;
66380;SDS011;53177;52.648;1.214;2022-10-18T04:02:34;7.57;;;2.63;;
66380;SDS011;53177;52.648;1.214;2022-10-18T04:05:00;9.93;;;3.07;;
66380;SDS011;53177;52.648;1.214;2022-10-18T04:07:25;10.43;;;3.30;;
66380;SDS011;53177;52.648;1.214;2022-10-18T04:09:51;9.40;;;3.47;;
66380;SDS011;53177;52.648;1.214;2022-10-18T04:12:16;11.97;;;3.37;;
66380;SDS011;53177;52.648;1.214;2022-10-18T04:14:42;8.48;;;3.17;;
66380;SDS011;53177;52.648;1.214;2022-10-18T04:17:07;10.80;;;3.63;;
66380;SDS011;53177;52.648;1.214;2022-10-18T04:19:33;11.77;;;3.60;;
66380;SDS011;53177;52.648;1.214;2022-10-18T04:22:03;8.02;;;3.15;;
66380;SDS011;53177;52.648;1.214;2022-10-18T04:24:29;13.07;;;3.30;;
66380;SDS011;53177;52.648;1.214;2022-10-18T04:26:54;14.37;;;4.13;;
66380;SDS011;53177;52.648;1.214;2022-10-18T04:29:19;6.35;;;2.95;;
66380;SDS011;53177;52.648;1.214;2022-10-18T04:31:45;11.27;;;3.33;;
66380;SDS011;53177;52.648;1.214;2022-10-18T04:34:10;9.60;;;3.40;;
66380;SDS011;53177;52.648;1.214;2022-10-18T04:36:36;7.60;;;2.80;;
66380;SDS011;53177;52.648;1.214;2022-10-18T04:39:01;7.05;;;2.92;;
66380;SDS011;53177;52.648;1.214;2022-10-18T04:41:27;7.70;;;3.90;;
66380;SDS011;53177;52.648;1.214;2022-10-18T04:43:52;8.87;;;3.50;;
66380;SDS011;53177;52.648;1.214;2022-10-18T04:46:18;11.25;;;3.70;;
66380;SDS011;53177;52.648;1.214;2022-10-18T04:48:43;10.37;;;3.30;;
66380;SDS011;53177;52.648;1.214;2022-10-18T04:51:09;11.03;;;3.40;;
66380;SDS011;53177;52.648;1.214;2022-10-18T04:53:34;10.83;;;3.70;;
66380;SDS011;53177;52.648;1.214;2022-10-18T04:56:00;10.65;;;3.83;;
66380;SDS011;53177;52.648;1.214;2022-10-18T04:58:25;10.43;;;3.63;;
66380;SDS011;53177;52.648;1.214;2022-10-18T05:00:50;9.80;;;3.70;;
66380;SDS011;53177;52.648;1.214;2022-10-18T05:03:16;11.50;;;3.20;;
66380;SDS011;53177;52.648;1.214;2022-10-18T05:05:42;12.13;;;3.83;;
66380;SDS011;53177;52.648;1.214;2022-10-18T05:08:10;8.88;;;3.53;;
66380;SDS011;53177;52.648;1.214;2022-10-18T05:10:35;11.02;;;3.85;;
66380;SDS011;53177;52.648;1.214;2022-10-18T05:13:01;10.57;;;3.97;;
66380;SDS011;53177;52.648;1.214;2022-10-18T05:15:27;9.43;;;3.70;;
66380;SDS011;53177;52.648;1.214;2022-10-18T05:17:52;12.30;;;4.30;;
66380;SDS011;53177;52.648;1.214;2022-10-18T05:20:19;9.37;;;4.00;;
66380;SDS011;53177;52.648;1.214;2022-10-18T05:22:45;10.55;;;4.20;;
66380;SDS011;53177;52.648;1.214;2022-10-18T05:25:10;12.70;;;4.17;;
66380;SDS011;53177;52.648;1.214;2022-10-18T05:27:36;11.63;;;4.03;;
66380;SDS011;53177;52.648;1.214;2022-10-18T05:30:02;12.87;;;4.53;;
66380;SDS011;53177;52.648;1.214;2022-10-18T05:32:28;11.93;;;4.45;;
66380;SDS011;53177;52.648;1.214;2022-10-18T05:34:54;11.60;;;4.00;;
66380;SDS011;53177;52.648;1.214;2022-10-18T05:37:19;13.47;;;4.70;;
66380;SDS011;53177;52.648;1.214;2022-10-18T05:39:45;11.65;;;4.60;;
66380;SDS011;53177;52.648;1.214;2022-10-18T05:42:11;10.33;;;4.43;;
66380;SDS011;53177;52.648;1.214;2022-10-18T05:44:36;11.90;;;4.40;;
66380;SDS011;53177;52.648;1.214;2022-10-18T05:47:02;13.00;;;4.60;;
66380;SDS011;53177;52.648;1.214;2022-10-18T05:49:27;13.17;;;5.00;;
66380;SDS011;53177;52.648;1.214;2022-10-18T05:51:52;13.50;;;5.20;;
66380;SDS011;53177;52.648;1.214;2022-10-18T05:54:18;12.00;;;5.17;;
66380;SDS011;53177;52.648;1.214;2022-10-18T05:56:44;15.20;;;5.45;;
66380;SDS011;53177;52.648;1.214;2022-10-18T05:59:10;13.57;;;4.43;;
66380;SDS011;53177;52.648;1.214;2022-10-18T06:01:36;10.75;;;4.30;;
66380;SDS011;53177;52.648;1.214;2022-10-18T06:04:03;11.85;;;4.22;;
66380;SDS011;53177;52.648;1.214;2022-10-18T06:06:29;9.90;;;4.18;;
66380;SDS011;53177;52.648;1.214;2022-10-18T06:08:55;11.98;;;4.22;;
66380;SDS011;53177;52.648;1.214;2022-10-18T06:11:21;10.83;;;4.20;;
66380;SDS011;53177;52.648;1.214;2022-10-18T06:13:47;10.47;;;4.00;;
66380;SDS011;53177;52.648;1.214;2022-10-18T06:16:14;11.48;;;4.00;;
66380;SDS011;53177;52.648;1.214;2022-10-18T06:18:42;15.98;;;4.95;;
66380;SDS011;53177;52.648;1.214;2022-10-18T06:21:18;11.80;;;4.13;;
66380;SDS011;53177;52.648;1.214;2022-10-18T06:23:57;9.82;;;3.90;;
66380;SDS011;53177;52.648;1.214;2022-10-18T06:26:31;9.37;;;4.00;;
66380;SDS011;53177;52.648;1.214;2022-10-18T06:29:04;10.43;;;4.28;;
66380;SDS011;53177;52.648;1.214;2022-10-18T06:31:32;10.52;;;4.00;;
66380;SDS011;53177;52.648;1.214;2022-10-18T06:34:07;13.88;;;4.65;;
66380;SDS011;53177;52.648;1.214;2022-10-18T06:36:35;11.32;;;5.50;;
66380;SDS011;53177;52.648;1.214;2022-10-18T06:39:07;14.70;;;5.50;;
66380;SDS011;53177;52.648;1.214;2022-10-18T06:41:40;13.30;;;5.38;;
66380;SDS011;53177;52.648;1.214;2022-10-18T06:44:08;14.10;;;5.80;;
66380;SDS011;53177;52.648;1.214;2022-10-18T06:46:40;14.30;;;6.90;;
66380;SDS011;53177;52.648;1.214;2022-10-18T06:49:13;16.60;;;7.50;;
66380;SDS011;53177;52.648;1.214;2022-10-18T06:51:46;12.83;;;5.97;;
66380;SDS011;53177;52.648;1.214;2022-10-18T06:54:15;14.35;;;5.47;;
66380;SDS011;53177;52.648;1.214;2022-10-18T06:56:43;12.10;;;5.53;;
66380;SDS011;53177;52.648;1.214;2022-10-18T06:59:15;14.35;;;5.43;;
66380;SDS011;53177;52.648;1.214;2022-10-18T07:01:46;10.68;;;5.32;;
66380;SDS011;53177;52.648;1.214;2022-10-18T07:04:19;12.27;;;5.23;;
66380;SDS011;53177;52.648;1.214;2022-10-18T07:06:52;11.10;;;5.00;;
66380;SDS011;53177;52.648;1.214;2022-10-18T07:09:21;12.95;;;5.05;;
66380;SDS011;53177;52.648;1.214;2022-10-18T07:11:48;15.23;;;5.05;;
66380;SDS011;53177;52.648;1.214;2022-10-18T07:14:13;12.40;;;4.90;;
66380;SDS011;53177;52.648;1.214;2022-10-18T07:16:39;10.03;;;4.60;;
66380;SDS011;53177;52.648;1.214;2022-10-18T07:19:04;12.13;;;4.90;;
66380;SDS011;53177;52.648;1.214;2022-10-18T07:21:30;9.68;;;4.38;;
66380;SDS011;53177;52.648;1.214;2022-10-18T07:23:55;11.63;;;5.10;;
66380;SDS011;53177;52.648;1.214;2022-10-18T07:28:48;13.97;;;5.17;;
66380;SDS011;53177;52.648;1.214;2022-10-18T07:31:34;12.10;;;4.93;;
66380;SDS011;53177;52.648;1.214;2022-10-18T07:34:00;11.27;;;4.72;;
66380;SDS011;53177;52.648;1.214;2022-10-18T07:36:27;12.18;;;4.93;;
66380;SDS011;53177;52.648;1.214;2022-10-18T07:38:53;10.47;;;4.77;;
66380;SDS011;53177;52.648;1.214;2022-10-18T07:41:23;13.80;;;5.10;;
66380;SDS011;53177;52.648;1.214;2022-10-18T07:43:51;15.13;;;5.50;;
66380;SDS011;53177;52.648;1.214;2022-10-18T07:46:20;11.82;;;4.38;;
66380;SDS011;53177;52.648;1.214;2022-10-18T07:48:46;10.00;;;4.35;;
66380;SDS011;53177;52.648;1.214;2022-10-18T07:51:12;13.52;;;4.55;;
66380;SDS011;53177;52.648;1.214;2022-10-18T07:53:38;13.05;;;5.15;;
66380;SDS011;53177;52.648;1.214;2022-10-18T07:56:04;11.53;;;5.13;;
66380;SDS011;53177;52.648;1.214;2022-10-18T07:58:43;13.23;;;4.85;;
66380;SDS011;53177;52.648;1.214;2022-10-18T08:01:11;15.32;;;5.90;;
66380;SDS011;53177;52.648;1.214;2022-10-18T08:03:37;13.98;;;5.78;;
66380;SDS011;53177;52.648;1.214;2022-10-18T08:06:04;13.73;;;5.50;;
66380;SDS011;53177;52.648;1.214;2022-10-18T08:08:32;14.35;;;5.07;;
66380;SDS011;53177;52.648;1.214;2022-10-18T08:11:05;13.60;;;5.57;;
66380;SDS011;53177;52.648;1.214;2022-10-18T08:13:32;13.93;;;5.53;;
66380;SDS011;53177;52.648;1.214;2022-10-18T08:15:59;15.80;;;6.37;;
66380;SDS011;53177;52.648;1.214;2022-10-18T08:18:25;19.25;;;5.38;;
66380;SDS011;53177;52.648;1.214;2022-10-18T08:20:51;12.20;;;5.23;;
66380;SDS011;53177;52.648;1.214;2022-10-18T08:23:16;15.23;;;5.57;;
66380;SDS011;53177;52.648;1.214;2022-10-18T08:25:41;16.47;;;6.10;;
66380;SDS011;53177;52.648;1.214;2022-10-18T08:28:07;14.52;;;5.88;;
66380;SDS011;53177;52.648;1.214;2022-10-18T08:30:34;12.13;;;5.60;;
66380;SDS011;53177;52.648;1.214;2022-10-18T08:33:02;17.23;;;6.18;;
66380;SDS011;53177;52.648;1.214;2022-10-18T08:35:27;16.85;;;5.90;;
66380;SDS011;53177;52.648;1.214;2022-10-18T08:37:53;14.60;;;5.87;;
66380;SDS011;53177;52.648;1.214;2022-10-18T08:40:19;18.55;;;5.50;;
66380;SDS011;53177;52.648;1.214;2022-10-18T08:43:03;14.88;;;5.60;;
66380;SDS011;53177;52.648;1.214;2022-10-18T08:45:36;11.98;;;5.13;;
66380;SDS011;53177;52.648;1.214;2022-10-18T08:48:03;15.48;;;5.38;;
66380;SDS011;53177;52.648;1.214;2022-10-18T08:50:32;15.05;;;5.25;;
66380;SDS011;53177;52.648;1.214;2022-10-18T08:55:45;13.13;;;4.32;;
66380;SDS011;53177;52.648;1.214;2022-10-18T08:58:25;15.20;;;4.80;;
66380;SDS011;53177;52.648;1.214;2022-10-18T09:03:51;13.13;;;4.30;;
66380;SDS011;53177;52.648;1.214;2022-10-18T09:06:31;13.63;;;4.40;;
66380;SDS011;53177;52.648;1.214;2022-10-18T09:09:15;17.25;;;5.95;;
66380;SDS011;53177;52.648;1.214;2022-10-18T09:15:34;16.17;;;5.80;;
66380;SDS011;53177;52.648;1.214;2022-10-18T09:18:15;16.65;;;4.97;;
66380;SDS011;53177;52.648;1.214;2022-10-18T09:20:55;12.60;;;4.43;;
66380;SDS011;53177;52.648;1.214;2022-10-18T09:23:38;12.00;;;3.97;;
66380;SDS011;53177;52.648;1.214;2022-10-18T09:26:15;12.13;;;3.30;;
66380;SDS011;53177;52.648;1.214;2022-10-18T09:28:56;14.60;;;3.55;;
66380;SDS011;53177;52.648;1.214;2022-10-18T09:31:49;11.10;;;3.28;;
66380;SDS011;53177;52.648;1.214;2022-10-18T09:34:30;10.20;;;2.78;;
66380;SDS011;53177;52.648;1.214;2022-10-18T09:37:01;8.70;;;2.28;;
66380;SDS011;53177;52.648;1.214;2022-10-18T09:39:29;11.63;;;2.35;;
66380;SDS011;53177;52.648;1.214;2022-10-18T09:44:59;11.13;;;2.28;;
66380;SDS011;53177;52.648;1.214;2022-10-18T09:47:31;9.57;;;2.60;;
66380;SDS011;53177;52.648;1.214;2022-10-18T09:50:02;10.55;;;2.72;;
66380;SDS011;53177;52.648;1.214;2022-10-18T09:52:48;11.10;;;2.30;;
66380;SDS011;53177;52.648;1.214;2022-10-18T09:55:25;10.98;;;2.78;;
66380;SDS011;53177;52.648;1.214;2022-10-18T09:57:58;8.82;;;2.80;;
66380;SDS011;53177;52.648;1.214;2022-10-18T10:00:32;12.02;;;2.67;;
66380;SDS011;53177;52.648;1.214;2022-10-18T10:03:05;15.52;;;3.33;;
66380;SDS011;53177;52.648;1.214;2022-10-18T10:05:36;12.80;;;3.22;;
66380;SDS011;53177;52.648;1.214;2022-10-18T10:08:02;14.75;;;2.95;;
66380;SDS011;53177;52.648;1.214;2022-10-18T10:10:29;9.95;;;2.42;;
66380;SDS011;53177;52.648;1.214;2022-10-18T10:13:03;11.70;;;2.60;;
66380;SDS011;53177;52.648;1.214;2022-10-18T10:15:53;11.60;;;2.05;;
66380;SDS011;53177;52.648;1.214;2022-10-18T10:20:49;9.38;;;2.10;;
66380;SDS011;53177;52.648;1.214;2022-10-18T10:23:36;11.68;;;2.38;;
66380;SDS011;53177;52.648;1.214;2022-10-18T10:26:29;8.27;;;1.80;;
66380;SDS011;53177;52.648;1.214;2022-10-18T10:28:57;12.15;;;2.85;;
66380;SDS011;53177;52.648;1.214;2022-10-18T10:36:23;17.05;;;2.42;;
66380;SDS011;53177;52.648;1.214;2022-10-18T10:41:36;9.35;;;1.83;;
66380;SDS011;53177;52.648;1.214;2022-10-18T10:44:04;8.10;;;1.75;;
66380;SDS011;53177;52.648;1.214;2022-10-18T10:46:40;7.95;;;1.48;;
66380;SDS011;53177;52.648;1.214;2022-10-18T10:49:12;9.50;;;1.60;;
66380;SDS011;53177;52.648;1.214;2022-10-18T10:51:59;11.27;;;1.73;;
66380;SDS011;53177;52.648;1.214;2022-10-18T10:54:27;7.75;;;1.80;;
66380;SDS011;53177;52.648;1.214;2022-10-18T10:57:04;8.45;;;1.88;;
66380;SDS011;53177;52.648;1.214;2022-10-18T11:04:42;10.00;;;1.75;;
66380;SDS011;53177;52.648;1.214;2022-10-18T11:14:53;6.50;;;1.58;;
66380;SDS011;53177;52.648;1.214;2022-10-18T11:17:41;7.05;;;1.60;;
66380;SDS011;53177;52.648;1.214;2022-10-18T11:20:34;7.95;;;1.40;;
66380;SDS011;53177;52.648;1.214;2022-10-18T11:23:09;8.25;;;1.23;;
66380;SDS011;53177;52.648;1.214;2022-10-18T11:28:05;7.80;;;1.70;;
66380;SDS011;53177;52.648;1.214;2022-10-18T11:36:15;8.10;;;1.02;;
66380;SDS011;53177;52.648;1.214;2022-10-18T11:41:43;6.75;;;0.90;;
66380;SDS011;53177;52.648;1.214;2022-10-18T11:44:22;9.38;;;1.90;;
66380;SDS011;53177;52.648;1.214;2022-10-18T11:46:58;6.60;;;1.10;;
66380;SDS011;53177;52.648;1.214;2022-10-18T11:52:36;6.13;;;0.90;;
66380;SDS011;53177;52.648;1.214;2022-10-18T11:57:57;5.45;;;0.90;;
66380;SDS011;53177;52.648;1.214;2022-10-18T12:05:46;6.40;;;1.07;;
66380;SDS011;53177;52.648;1.214;2022-10-18T12:08:14;5.60;;;1.27;;
66380;SDS011;53177;52.648;1.214;2022-10-18T12:11:02;5.57;;;1.00;;
66380;SDS011;53177;52.648;1.214;2022-10-18T12:13:36;6.25;;;1.00;;
66380;SDS011;53177;52.648;1.214;2022-10-18T12:16:07;6.30;;;1.05;;
66380;SDS011;53177;52.648;1.214;2022-10-18T12:18:35;5.47;;;1.00;;
66380;SDS011;53177;52.648;1.214;2022-10-18T12:21:04;6.53;;;0.98;;
66380;SDS011;53177;52.648;1.214;2022-10-18T12:23:44;8.40;;;1.20;;
66380;SDS011;53177;52.648;1.214;2022-10-18T12:26:29;8.02;;;1.15;;
66380;SDS011;53177;52.648;1.214;2022-10-18T12:28:59;6.80;;;1.10;;
66380;SDS011;53177;52.648;1.214;2022-10-18T12:31:47;6.60;;;1.03;;
66380;SDS011;53177;52.648;1.214;2022-10-18T12:39:20;6.05;;;1.00;;
66380;SDS011;53177;52.648;1.214;2022-10-18T12:41:53;8.45;;;1.40;;
66380;SDS011;53177;52.648;1.214;2022-10-18T12:44:23;6.47;;;1.10;;
66380;SDS011;53177;52.648;1.214;2022-10-18T12:47:01;8.23;;;1.10;;
66380;SDS011;53177;52.648;1.214;2022-10-18T12:51:59;6.10;;;1.00;;
66380;SDS011;53177;52.648;1.214;2022-10-18T12:54:31;6.22;;;1.08;;
66380;SDS011;53177;52.648;1.214;2022-10-18T12:57:02;7.77;;;1.03;;
66380;SDS011;53177;52.648;1.214;2022-10-18T13:09:24;4.82;;;0.95;;
66380;SDS011;53177;52.648;1.214;2022-10-18T13:17:38;7.07;;;1.10;;
66380;SDS011;53177;52.648;1.214;2022-10-18T13:26:00;4.50;;;1.00;;
66380;SDS011;53177;52.648;1.214;2022-10-18T13:31:34;8.33;;;1.30;;
66380;SDS011;53177;52.648;1.214;2022-10-18T13:37:17;5.35;;;1.10;;
66380;SDS011;53177;52.648;1.214;2022-10-18T13:39:47;7.57;;;1.20;;
66380;SDS011;53177;52.648;1.214;2022-10-18T13:44:38;7.50;;;1.20;;
66380;SDS011;53177;52.648;1.214;2022-10-18T14:06:17;5.72;;;1.00;;
66380;SDS011;53177;52.648;1.214;2022-10-18T14:14:44;6.40;;;0.90;;
66380;SDS011;53177;52.648;1.214;2022-10-18T14:20:25;5.30;;;0.90;;
66380;SDS011;53177;52.648;1.214;2022-10-18T14:23:02;7.15;;;1.20;;
66380;SDS011;53177;52.648;1.214;2022-10-18T14:25:30;7.22;;;1.40;;
66380;SDS011;53177;52.648;1.214;2022-10-18T14:30:52;7.00;;;1.10;;
66380;SDS011;53177;52.648;1.214;2022-10-18T14:35:59;5.90;;;1.05;;
66380;SDS011;53177;52.648;1.214;2022-10-18T14:38:28;5.80;;;1.15;;
66380;SDS011;53177;52.648;1.214;2022-10-18T14:41:04;6.60;;;1.03;;
66380;SDS011;53177;52.648;1.214;2022-10-18T14:43:30;20.08;;;2.92;;
66380;SDS011;53177;52.648;1.214;2022-10-18T14:46:06;8.17;;;1.97;;
66380;SDS011;53177;52.648;1.214;2022-10-18T14:48:33;7.78;;;1.50;;
66380;SDS011;53177;52.648;1.214;2022-10-18T14:50:58;5.00;;;1.40;;
66380;SDS011;53177;52.648;1.214;2022-10-18T14:53:28;7.53;;;1.50;;
66380;SDS011;53177;52.648;1.214;2022-10-18T14:56:00;6.80;;;1.10;;
66380;SDS011;53177;52.648;1.214;2022-10-18T14:58:29;6.10;;;1.25;;
66380;SDS011;53177;52.648;1.214;2022-10-18T15:00:56;6.32;;;1.25;;
66380;SDS011;53177;52.648;1.214;2022-10-18T15:03:22;7.70;;;1.60;;
66380;SDS011;53177;52.648;1.214;2022-10-18T15:05:56;7.10;;;1.50;;
66380;SDS011;53177;52.648;1.214;2022-10-18T15:08:31;5.28;;;1.30;;
66380;SDS011;53177;52.648;1.214;2022-10-18T15:11:01;8.77;;;1.42;;
66380;SDS011;53177;52.648;1.214;2022-10-18T15:13:27;6.70;;;1.20;;
66380;SDS011;53177;52.648;1.214;2022-10-18T15:15:55;7.87;;;1.70;;
66380;SDS011;53177;52.648;1.214;2022-10-18T15:18:22;7.53;;;1.50;;
66380;SDS011;53177;52.648;1.214;2022-10-18T15:23:42;6.73;;;1.20;;
66380;SDS011;53177;52.648;1.214;2022-10-18T15:26:08;10.63;;;1.30;;
66380;SDS011;53177;52.648;1.214;2022-10-18T15:28:47;9.27;;;1.57;;
66380;SDS011;53177;52.648;1.214;2022-10-18T15:31:21;7.75;;;1.45;;
66380;SDS011;53177;52.648;1.214;2022-10-18T15:34:17;5.18;;;1.30;;
66380;SDS011;53177;52.648;1.214;2022-10-18T15:36:51;7.60;;;1.50;;
66380;SDS011;53177;52.648;1.214;2022-10-18T15:39:22;9.75;;;1.50;;
66380;SDS011;53177;52.648;1.214;2022-10-18T15:46:47;8.60;;;1.60;;
66380;SDS011;53177;52.648;1.214;2022-10-18T15:51:48;6.85;;;1.55;;
66380;SDS011;53177;52.648;1.214;2022-10-18T15:54:40;9.40;;;1.50;;
66380;SDS011;53177;52.648;1.214;2022-10-18T15:57:06;8.13;;;1.58;;
66380;SDS011;53177;52.648;1.214;2022-10-18T15:59:33;9.98;;;1.65;;
66380;SDS011;53177;52.648;1.214;2022-10-18T16:01:58;8.37;;;1.50;;
66380;SDS011;53177;52.648;1.214;2022-10-18T16:04:30;7.60;;;1.50;;
66380;SDS011;53177;52.648;1.214;2022-10-18T16:06:57;10.40;;;1.77;;
66380;SDS011;53177;52.648;1.214;2022-10-18T16:09:25;9.60;;;1.50;;
66380;SDS011;53177;52.648;1.214;2022-10-18T16:11:52;7.93;;;1.40;;
66380;SDS011;53177;52.648;1.214;2022-10-18T16:14:18;8.02;;;1.50;;
66380;SDS011;53177;52.648;1.214;2022-10-18T16:16:44;6.95;;;1.50;;
66380;SDS011;53177;52.648;1.214;2022-10-18T16:19:15;7.07;;;1.52;;
66380;SDS011;53177;52.648;1.214;2022-10-18T16:21:46;8.57;;;1.98;;
66380;SDS011;53177;52.648;1.214;2022-10-18T16:24:12;9.18;;;1.63;;
66380;SDS011;53177;52.648;1.214;2022-10-18T16:26:38;8.80;;;1.70;;
66380;SDS011;53177;52.648;1.214;2022-10-18T16:29:03;10.80;;;1.90;;
66380;SDS011;53177;52.648;1.214;2022-10-18T16:31:30;12.00;;;1.83;;
66380;SDS011;53177;52.648;1.214;2022-10-18T16:33:57;9.82;;;1.60;;
66380;SDS011;53177;52.648;1.214;2022-10-18T16:36:25;10.13;;;1.95;;
66380;SDS011;53177;52.648;1.214;2022-10-18T16:38:53;10.88;;;1.27;;
66380;SDS011;53177;52.648;1.214;2022-10-18T16:41:19;9.63;;;1.50;;
66380;SDS011;53177;52.648;1.214;2022-10-18T16:43:45;8.77;;;1.73;;
66380;SDS011;53177;52.648;1.214;2022-10-18T16:46:19;9.90;;;2.15;;
66380;SDS011;53177;52.648;1.214;2022-10-18T16:48:47;8.13;;;1.70;;
66380;SDS011;53177;52.648;1.214;2022-10-18T16:51:13;9.80;;;1.60;;
66380;SDS011;53177;52.648;1.214;2022-10-18T16:53:39;8.48;;;1.83;;
66380;SDS011;53177;52.648;1.214;2022-10-18T16:56:05;8.57;;;1.67;;
66380;SDS011;53177;52.648;1.214;2022-10-18T16:58:42;11.13;;;1.52;;
66380;SDS011;53177;52.648;1.214;2022-10-18T17:01:09;10.00;;;1.70;;
66380;SDS011;53177;52.648;1.214;2022-10-18T17:03:36;6.32;;;1.75;;
66380;SDS011;53177;52.648;1.214;2022-10-18T17:06:02;9.50;;;1.93;;
66380;SDS011;53177;52.648;1.214;2022-10-18T17:08:28;8.75;;;2.08;;
66380;SDS011;53177;52.648;1.214;2022-10-18T17:10:55;12.43;;;1.97;;
66380;SDS011;53177;52.648;1.214;2022-10-18T17:13:22;13.88;;;2.13;;
66380;SDS011;53177;52.648;1.214;2022-10-18T17:15:49;7.15;;;2.10;;
66380;SDS011;53177;52.648;1.214;2022-10-18T17:18:22;8.80;;;1.80;;
66380;SDS011;53177;52.648;1.214;2022-10-18T17:20:50;9.35;;;2.13;;
66380;SDS011;53177;52.648;1.214;2022-10-18T17:23:16;11.20;;;2.10;;
66380;SDS011;53177;52.648;1.214;2022-10-18T17:25:41;10.67;;;1.90;;
66380;SDS011;53177;52.648;1.214;2022-10-18T17:28:09;11.75;;;2.30;;
66380;SDS011;53177;52.648;1.214;2022-10-18T17:30:38;9.70;;;2.13;;
66380;SDS011;53177;52.648;1.214;2022-10-18T17:33:04;8.13;;;2.10;;
66380;SDS011;53177;52.648;1.214;2022-10-18T17:35:29;13.57;;;2.42;;
66380;SDS011;53177;52.648;1.214;2022-10-18T17:37:55;11.30;;;2.23;;
66380;SDS011;53177;52.648;1.214;2022-10-18T17:40:21;11.67;;;2.23;;
66380;SDS011;53177;52.648;1.214;2022-10-18T17:42:51;14.88;;;2.80;;